Time;durP1;ratioP1;P1;durP2;ratioP2;P2;SDS_P1;SDS_P2;PMS_P1;PMS_P2;Temp;Humidity;BMP_temperature;BMP_pressure;BME280_temperature;BME280_humidity;BME280_pressure;Samples;Min_cycle;Max_cycle;Signal;HPM_P1;HPM_P2
2021/07/09 00:02:06;;;;;;;16.83;12.35;;;;;;;23.62;75.74;100361.88;5042025;28;20213;-75
2021/07/09 00:04:32;;;;;;;17.83;12.05;;;;;;;23.42;76.91;100362.97;5040705;28;20017;-77
2021/07/09 00:06:58;;;;;;;15.98;11.60;;;;;;;23.38;77.19;100350.16;5042140;28;20056;-77
2021/07/09 00:09:25;;;;;;;18.35;12.32;;;;;;;23.24;77.83;100353.06;5040547;28;20029;-77
2021/07/09 00:11:53;;;;;;;17.50;12.75;;;;;;;23.18;78.07;100345.03;5040780;28;20100;-76
2021/07/09 00:14:23;;;;;;;16.58;12.27;;;;;;;23.05;79.25;100353.31;5043067;28;20095;-76
2021/07/09 00:16:49;;;;;;;16.15;12.60;;;;;;;22.88;79.79;100340.44;5046170;28;20068;-76
2021/07/09 00:19:15;;;;;;;19.38;12.20;;;;;;;22.88;80.44;100355.81;5045606;28;20033;-76
2021/07/09 00:21:41;;;;;;;18.02;12.90;;;;;;;22.85;80.79;100351.69;5046356;28;20037;-76
2021/07/09 00:24:07;;;;;;;19.88;13.38;;;;;;;22.81;81.12;100342.41;5039402;28;20048;-76
2021/07/09 00:26:34;;;;;;;17.15;12.25;;;;;;;22.80;81.54;100350.72;5037544;28;20026;-77
2021/07/09 00:29:00;;;;;;;15.10;11.45;;;;;;;22.78;81.78;100344.69;5041343;28;20125;-77
2021/07/09 00:31:30;;;;;;;16.35;11.68;;;;;;;22.72;82.26;100349.13;5036114;28;20026;-76
2021/07/09 00:33:56;;;;;;;14.52;12.05;;;;;;;22.63;82.32;100342.38;5039529;28;20029;-76
2021/07/09 00:36:22;;;;;;;15.43;12.10;;;;;;;22.65;82.16;100342.97;5033173;28;20033;-77
2021/07/09 00:38:47;;;;;;;15.00;11.70;;;;;;;22.65;82.19;100339.47;5032248;28;20350;-76
2021/07/09 00:41:13;;;;;;;16.35;12.02;;;;;;;22.73;81.95;100339.97;5037174;28;20264;-76
2021/07/09 00:43:38;;;;;;;15.35;12.00;;;;;;;22.66;81.77;100341.94;5032749;28;20350;-75
2021/07/09 00:46:04;;;;;;;15.20;11.57;;;;;;;22.71;81.38;100349.34;5033150;28;20038;-75
2021/07/09 00:48:30;;;;;;;17.38;12.10;;;;;;;22.70;81.51;100351.22;5034777;28;20048;-77
2021/07/09 00:51:06;;;;;;;20.75;11.82;;;;;;;22.85;81.08;100348.16;5040443;28;20272;-77
2021/07/09 00:53:31;;;;;;;14.50;11.90;;;;;;;22.77;80.97;100343.03;5036577;28;20069;-77
2021/07/09 00:55:57;;;;;;;14.15;11.10;;;;;;;22.74;80.68;100320.03;5029504;28;20030;-77
2021/07/09 00:58:23;;;;;;;16.85;11.80;;;;;;;22.92;80.99;100346.22;5031493;28;20108;-76
2021/07/09 01:00:49;;;;;;;13.27;10.40;;;;;;;22.99;80.69;100338.03;5032918;28;20029;-77
2021/07/09 01:03:15;;;;;;;15.93;10.63;;;;;;;23.14;80.18;100349.25;5038722;28;20052;-76
2021/07/09 01:05:41;;;;;;;15.95;9.93;;;;;;;23.18;80.07;100342.34;5038902;28;20041;-76
2021/07/09 01:08:07;;;;;;;12.95;10.55;;;;;;;23.24;80.10;100346.81;5028429;28;20033;-77
2021/07/09 01:10:33;;;;;;;15.57;10.60;;;;;;;23.30;80.07;100343.19;5028117;28;20243;-77
2021/07/09 01:12:58;;;;;;;15.60;10.30;;;;;;;23.40;79.22;100350.75;5031941;28;20030;-77
2021/07/09 01:15:24;;;;;;;13.48;10.65;;;;;;;23.34;79.60;100346.25;5030458;28;20028;-76
2021/07/09 01:17:51;;;;;;;14.18;9.52;;;;;;;23.40;79.15;100345.34;5034832;28;20128;-77
2021/07/09 01:20:19;;;;;;;11.20;8.77;;;;;;;23.52;78.23;100347.00;5036595;28;20339;-77
2021/07/09 01:22:46;;;;;;;11.82;7.97;;;;;;;23.57;77.80;100346.34;5028997;28;20033;-76
2021/07/09 01:25:17;;;;;;;11.07;9.23;;;;;;;23.43;77.69;100325.94;5029838;28;20029;-76
2021/07/09 01:27:46;;;;;;;14.65;8.68;;;;;;;23.42;78.06;100325.13;5031689;28;20045;-76
2021/07/09 01:30:15;;;;;;;11.75;8.98;;;;;;;23.61;77.73;100344.81;5035804;28;20057;-76
2021/07/09 01:32:41;;;;;;;12.40;8.43;;;;;;;23.74;77.32;100350.00;5034535;28;20092;-77
2021/07/09 01:35:07;;;;;;;9.93;8.27;;;;;;;23.80;76.84;100340.13;5034581;28;20036;-76
2021/07/09 01:37:33;;;;;;;12.65;8.35;;;;;;;23.85;76.48;100341.09;5036772;28;20037;-77
2021/07/09 01:39:59;;;;;;;10.98;9.18;;;;;;;23.96;75.81;100333.25;5031786;28;20168;-77
2021/07/09 01:42:24;;;;;;;13.85;9.20;;;;;;;23.99;75.49;100341.72;5031865;28;20025;-77
2021/07/09 01:44:50;;;;;;;8.73;7.82;;;;;;;24.10;75.16;100334.66;5030095;28;20029;-76
2021/07/09 01:47:16;;;;;;;11.55;8.55;;;;;;;24.15;74.57;100340.16;5038578;28;20040;-77
2021/07/09 01:49:51;;;;;;;10.23;8.82;;;;;;;24.15;74.45;100332.06;5036348;28;20033;-76
2021/07/09 01:52:17;;;;;;;11.32;8.10;;;;;;;24.09;74.51;100325.69;5029668;28;20045;-77
2021/07/09 01:54:43;;;;;;;10.13;8.27;;;;;;;24.21;73.97;100333.81;5029241;28;20032;-77
2021/07/09 01:57:09;;;;;;;15.18;8.05;;;;;;;24.15;74.06;100327.47;5029655;28;20041;-76
2021/07/09 01:59:35;;;;;;;10.15;8.50;;;;;;;24.17;73.89;100340.75;5025813;28;20033;-77
2021/07/09 02:02:00;;;;;;;11.43;8.68;;;;;;;24.00;74.67;100326.31;5032813;28;20033;-77
2021/07/09 02:04:25;;;;;;;11.27;8.68;;;;;;;23.92;75.13;100346.38;5032103;28;20229;-77
2021/07/09 02:06:51;;;;;;;10.95;9.02;;;;;;;23.81;75.75;100339.09;5040317;28;20068;-76
2021/07/09 02:09:16;;;;;;;12.73;9.02;;;;;;;23.80;76.29;100332.84;5042639;28;20071;-77
2021/07/09 02:11:42;;;;;;;11.05;8.52;;;;;;;23.73;76.94;100348.38;5029449;28;20307;-76
2021/07/09 02:14:07;;;;;;;12.15;8.82;;;;;;;23.67;77.34;100352.00;5028360;28;20029;-76
2021/07/09 02:16:33;;;;;;;11.43;9.60;;;;;;;23.76;77.37;100347.91;5035496;28;20026;-76
2021/07/09 02:18:58;;;;;;;14.85;10.35;;;;;;;23.58;77.75;100339.88;5028026;28;20033;-76
2021/07/09 02:21:24;;;;;;;11.73;9.30;;;;;;;23.64;78.09;100354.34;5038245;28;20030;-76
2021/07/09 02:23:49;;;;;;;13.13;9.30;;;;;;;23.80;77.52;100353.66;5032944;28;20083;-77
2021/07/09 02:26:14;;;;;;;11.82;9.15;;;;;;;23.89;76.88;100352.25;5044217;28;20509;-77
2021/07/09 02:28:40;;;;;;;11.23;9.20;;;;;;;24.01;76.37;100353.13;5024661;28;20087;-77
2021/07/09 02:31:05;;;;;;;13.18;9.75;;;;;;;23.98;76.31;100342.75;5032939;28;20037;-78
2021/07/09 02:33:31;;;;;;;13.70;10.38;;;;;;;24.06;76.22;100347.00;5033123;28;20041;-77
2021/07/09 02:35:56;;;;;;;17.55;10.80;;;;;;;24.05;76.02;100339.94;5031763;28;20029;-79
2021/07/09 02:38:22;;;;;;;14.52;10.82;;;;;;;24.13;75.60;100351.22;5034176;28;20052;-77
2021/07/09 02:40:47;;;;;;;13.10;10.60;;;;;;;24.10;75.69;100335.47;5032449;28;20034;-77
2021/07/09 02:43:13;;;;;;;15.05;10.27;;;;;;;24.23;75.28;100353.34;5032158;28;20045;-77
2021/07/09 02:45:38;;;;;;;14.90;10.25;;;;;;;24.14;75.81;100352.06;5032915;28;20255;-76
2021/07/09 02:48:04;;;;;;;14.52;10.32;;;;;;;24.20;75.52;100349.22;5031830;28;20036;-77
2021/07/09 02:50:29;;;;;;;14.00;9.88;;;;;;;24.13;75.67;100347.69;5030633;28;20042;-76
2021/07/09 02:52:55;;;;;;;13.55;10.30;;;;;;;24.21;75.46;100347.34;5031547;28;20029;-77
2021/07/09 02:55:22;;;;;;;11.80;10.15;;;;;;;24.11;75.67;100350.66;5032643;28;20029;-77
2021/07/09 02:57:47;;;;;;;15.90;10.45;;;;;;;24.11;75.08;100352.53;5024547;28;20097;-77
2021/07/09 03:00:15;;;;;;;18.95;10.50;;;;;;;23.94;75.20;100349.69;5048710;28;20280;-76
2021/07/09 03:02:41;;;;;;;16.65;10.73;;;;;;;23.91;75.50;100354.72;5038441;28;20048;-76
2021/07/09 03:05:09;;;;;;;17.75;11.30;;;;;;;23.88;75.12;100350.59;5040528;28;20017;-76
2021/07/09 03:07:34;;;;;;;15.30;11.50;;;;;;;23.89;75.13;100366.59;5035093;28;20034;-76
2021/07/09 03:10:00;;;;;;;17.63;11.68;;;;;;;23.95;75.09;100350.53;5028461;28;20177;-77
2021/07/09 03:12:26;;;;;;;17.95;12.50;;;;;;;23.97;74.91;100364.63;5026632;28;20045;-77
2021/07/09 03:14:51;;;;;;;15.30;12.02;;;;;;;23.94;75.86;100357.00;5034140;28;20040;-77
2021/07/09 03:17:17;;;;;;;21.38;11.45;;;;;;;23.80;76.86;100359.91;5033807;28;20033;-76
2021/07/09 03:19:42;;;;;;;16.75;11.75;;;;;;;23.98;76.79;100356.28;5029879;28;20087;-77
2021/07/09 03:22:08;;;;;;;14.52;11.20;;;;;;;24.05;76.25;100350.75;5030640;28;20049;-77
2021/07/09 03:24:33;;;;;;;19.83;13.65;;;;;;;24.16;76.04;100358.88;5027472;28;20029;-77
2021/07/09 03:26:59;;;;;;;21.02;11.35;;;;;;;24.31;75.67;100354.88;5033614;28;20036;-77
2021/07/09 03:29:24;;;;;;;17.83;10.65;;;;;;;24.19;76.26;100361.09;5034465;28;20104;-77
2021/07/09 03:31:49;;;;;;;16.58;10.50;;;;;;;24.15;77.03;100353.69;5028922;28;20036;-77
2021/07/09 03:34:15;;;;;;;14.20;10.98;;;;;;;24.12;77.68;100354.16;5035861;28;20246;-77
2021/07/09 03:36:43;;;;;;;16.75;11.40;;;;;;;24.07;78.73;100348.66;5034053;28;20024;-77
2021/07/09 03:39:12;;;;;;;15.95;10.48;;;;;;;24.22;78.12;100348.16;5024346;28;20041;-76
2021/07/09 03:41:39;;;;;;;18.75;10.00;;;;;;;24.17;77.51;100344.28;5033891;28;20041;-77
2021/07/09 03:44:06;;;;;;;17.45;10.77;;;;;;;24.39;77.08;100349.94;5033671;28;20105;-77
2021/07/09 03:46:32;;;;;;;18.02;10.60;;;;;;;24.42;77.08;100343.22;5029242;28;20041;-76
2021/07/09 03:48:57;;;;;;;16.58;10.32;;;;;;;24.68;75.83;100350.81;5041377;28;20038;-76
2021/07/09 03:51:23;;;;;;;21.00;11.57;;;;;;;24.62;78.00;100351.78;5039956;28;20029;-76
2021/07/09 03:53:54;;;;;;;16.63;10.90;;;;;;;24.58;78.39;100356.03;5026599;28;20042;-76
2021/07/09 03:56:20;;;;;;;12.55;11.25;;;;;;;24.52;77.66;100346.97;5032483;28;20018;-77
2021/07/09 03:58:45;;;;;;;13.40;12.00;;;;;;;24.50;78.30;100356.38;5026822;28;20033;-77
2021/07/09 04:01:11;;;;;;;14.80;12.02;;;;;;;24.38;78.31;100355.59;5028501;28;20043;-77
2021/07/09 04:03:36;;;;;;;14.07;11.98;;;;;;;24.32;78.21;100353.84;5030932;28;20083;-77
2021/07/09 04:06:02;;;;;;;18.67;11.73;;;;;;;24.47;77.62;100344.16;5030891;28;20042;-77
2021/07/09 04:08:27;;;;;;;14.10;11.30;;;;;;;24.51;77.05;100342.63;5027808;28;20040;-77
2021/07/09 04:10:53;;;;;;;14.55;11.20;;;;;;;24.55;76.63;100340.25;5035143;28;20196;-77
2021/07/09 04:13:18;;;;;;;14.93;11.00;;;;;;;24.45;77.29;100346.28;5029399;28;20064;-76
2021/07/09 04:15:43;;;;;;;14.73;11.95;;;;;;;24.42;77.28;100345.94;5032714;28;20033;-77
2021/07/09 04:18:09;;;;;;;13.18;11.57;;;;;;;24.47;76.21;100344.16;5031900;28;20053;-77
2021/07/09 04:20:34;;;;;;;15.07;10.90;;;;;;;24.60;75.20;100345.78;5024799;28;20021;-76
2021/07/09 04:23:00;;;;;;;17.80;11.98;;;;;;;24.77;74.80;100343.13;5030456;28;20349;-77
2021/07/09 04:25:25;;;;;;;12.98;11.57;;;;;;;24.99;73.90;100351.47;5033558;28;20231;-77
2021/07/09 04:27:51;;;;;;;14.10;10.85;;;;;;;25.10;73.26;100346.00;5040364;28;20040;-77
2021/07/09 04:30:17;;;;;;;14.10;10.82;;;;;;;25.37;72.39;100348.09;5040710;28;20093;-77
2021/07/09 04:32:42;;;;;;;13.77;10.60;;;;;;;25.51;71.50;100345.91;5035614;28;20131;-76
2021/07/09 04:35:09;;;;;;;21.20;11.38;;;;;;;25.61;70.46;100341.47;5031094;28;20038;-76
2021/07/09 04:37:35;;;;;;;12.43;11.10;;;;;;;25.84;69.75;100354.06;5032506;28;20362;-76
2021/07/09 04:40:01;;;;;;;16.25;11.38;;;;;;;25.96;69.52;100357.50;5033137;28;20229;-76
2021/07/09 04:42:26;;;;;;;16.75;10.70;;;;;;;26.08;68.76;100349.31;5025025;28;20053;-76
2021/07/09 04:44:52;;;;;;;10.95;9.77;;;;;;;26.44;67.29;100350.66;5029371;28;20026;-77
2021/07/09 04:47:17;;;;;;;13.77;10.38;;;;;;;26.75;66.58;100345.59;5032801;28;20049;-77
2021/07/09 04:49:43;;;;;;;12.57;9.18;;;;;;;26.92;66.30;100351.78;5030571;28;20402;-77
2021/07/09 04:52:08;;;;;;;10.98;9.25;;;;;;;27.21;63.74;100346.97;5032242;28;20045;-77
2021/07/09 04:54:34;;;;;;;12.13;8.77;;;;;;;27.40;63.15;100350.16;5030390;28;20327;-77
2021/07/09 04:56:59;;;;;;;11.40;8.82;;;;;;;27.70;61.54;100346.91;5035192;28;20044;-77
2021/07/09 04:59:25;;;;;;;9.80;7.88;;;;;;;28.13;60.08;100356.75;5035205;28;20032;-77
2021/07/09 05:01:50;;;;;;;10.82;9.23;;;;;;;28.36;59.30;100345.47;5025081;28;20039;-77
2021/07/09 05:04:15;;;;;;;14.88;10.07;;;;;;;28.56;58.29;100347.47;5026781;28;20025;-77
2021/07/09 05:06:41;;;;;;;12.95;9.02;;;;;;;28.90;57.50;100340.53;5026655;28;20034;-77
2021/07/09 05:09:07;;;;;;;12.65;8.77;;;;;;;29.11;56.11;100343.31;5034266;28;20041;-77
2021/07/09 05:11:34;;;;;;;10.93;8.88;;;;;;;29.29;56.17;100331.91;5040366;28;20247;-77
2021/07/09 05:14:02;;;;;;;11.43;9.05;;;;;;;29.73;54.56;100334.13;5027503;28;20176;-75
2021/07/09 05:16:27;;;;;;;10.43;9.30;;;;;;;30.07;53.55;100345.31;5030446;28;20090;-76
2021/07/09 05:18:54;;;;;;;10.52;9.43;;;;;;;30.20;52.15;100313.91;5033576;28;20045;-76
2021/07/09 05:21:20;;;;;;;13.45;8.68;;;;;;;30.70;50.88;100342.97;5033103;28;20032;-75
2021/07/09 05:23:45;;;;;;;16.05;8.65;;;;;;;31.02;50.00;100331.56;5036096;28;20021;-77
2021/07/09 05:26:11;;;;;;;10.77;8.52;;;;;;;31.34;49.04;100333.88;5033133;28;20093;-77
2021/07/09 05:28:36;;;;;;;11.38;9.18;;;;;;;31.53;48.14;100331.25;5028999;28;20029;-77
2021/07/09 05:31:02;;;;;;;14.18;9.25;;;;;;;31.64;47.86;100327.34;5029791;28;20200;-77
2021/07/09 05:33:28;;;;;;;12.10;8.90;;;;;;;31.90;47.09;100330.69;5030667;28;20276;-76
2021/07/09 05:35:54;;;;;;;12.30;9.60;;;;;;;32.10;45.88;100340.59;5026799;28;20368;-77
2021/07/09 05:38:19;;;;;;;12.85;9.98;;;;;;;32.23;46.63;100335.25;5033668;28;20029;-77
2021/07/09 05:40:45;;;;;;;14.65;8.88;;;;;;;32.45;45.37;100329.31;5026992;28;20140;-76
2021/07/09 05:43:10;;;;;;;14.48;9.20;;;;;;;32.26;45.56;100332.00;5031704;28;20049;-76
2021/07/09 05:45:36;;;;;;;11.98;8.60;;;;;;;31.66;46.74;100328.69;5025982;28;20062;-76
2021/07/09 05:48:01;;;;;;;11.80;8.48;;;;;;;32.01;46.11;100337.69;5028469;28;20022;-76
2021/07/09 05:50:27;;;;;;;11.48;8.70;;;;;;;32.07;45.62;100331.88;5032582;28;20112;-76
2021/07/09 05:52:54;;;;;;;10.65;8.80;;;;;;;31.80;46.72;100334.34;5032047;28;20254;-75
2021/07/09 05:55:20;;;;;;;13.82;8.43;;;;;;;32.24;45.18;100328.69;5034174;28;20153;-75
2021/07/09 05:57:46;;;;;;;11.05;8.68;;;;;;;32.81;43.59;100320.63;5028924;28;20072;-75
2021/07/09 06:00:12;;;;;;;11.00;7.97;;;;;;;33.11;42.12;100302.91;5031260;28;20043;-75
2021/07/09 06:02:37;;;;;;;10.35;8.05;;;;;;;33.01;42.47;100325.81;5034784;28;20214;-76
2021/07/09 06:05:05;;;;;;;10.63;6.93;;;;;;;33.48;41.11;100335.84;5031180;28;20212;-76
2021/07/09 06:07:30;;;;;;;8.30;7.07;;;;;;;33.59;41.13;100329.06;5031631;28;20033;-76
2021/07/09 06:09:56;;;;;;;9.35;8.25;;;;;;;33.63;40.65;100321.88;5031611;28;20214;-77
2021/07/09 06:12:21;;;;;;;10.25;7.45;;;;;;;33.18;41.42;100331.59;5031892;28;20335;-77
2021/07/09 06:14:47;;;;;;;9.43;7.25;;;;;;;33.69;40.20;100321.78;5030397;28;20056;-77
2021/07/09 06:17:12;;;;;;;8.70;7.22;;;;;;;34.07;38.98;100322.47;5039868;28;20029;-75
2021/07/09 06:19:38;;;;;;;10.02;8.43;;;;;;;34.28;38.74;100321.75;5039624;28;20079;-77
2021/07/09 06:22:03;;;;;;;9.38;7.57;;;;;;;34.51;38.74;100311.72;5028990;28;20042;-78
2021/07/09 06:24:29;;;;;;;10.98;6.50;;;;;;;34.52;38.09;100313.34;5042513;28;20044;-77
2021/07/09 06:26:54;;;;;;;7.70;6.90;;;;;;;34.42;37.59;100308.06;5040053;28;20278;-76
2021/07/09 06:29:20;;;;;;;10.02;7.10;;;;;;;33.94;39.18;100310.34;5038127;28;20087;-75
2021/07/09 06:31:45;;;;;;;7.60;6.07;;;;;;;34.22;38.26;100306.50;5036806;28;20032;-75
2021/07/09 06:34:11;;;;;;;10.18;6.28;;;;;;;34.32;36.46;100304.66;5036208;28;20033;-75
2021/07/09 06:36:36;;;;;;;6.97;5.72;;;;;;;34.88;35.18;100305.16;5037962;28;20052;-76
2021/07/09 06:39:03;;;;;;;13.90;6.80;;;;;;;34.98;35.21;100301.34;5036447;28;20040;-77
2021/07/09 06:41:28;;;;;;;7.85;6.65;;;;;;;35.29;35.64;100290.41;5034438;28;20281;-77
2021/07/09 06:43:56;;;;;;;10.98;6.82;;;;;;;35.45;35.08;100277.13;5035697;28;20045;-78
2021/07/09 06:46:22;;;;;;;7.13;5.72;;;;;;;35.72;34.52;100287.97;5036726;28;20033;-77
2021/07/09 06:48:48;;;;;;;7.18;5.68;;;;;;;35.95;33.70;100287.97;5037382;28;20041;-77
2021/07/09 06:51:13;;;;;;;9.40;5.72;;;;;;;36.18;33.39;100285.94;5037893;28;20075;-77
2021/07/09 06:53:39;;;;;;;7.20;5.63;;;;;;;36.28;33.23;100292.00;5034786;28;20025;-74
2021/07/09 06:56:05;;;;;;;7.32;5.72;;;;;;;36.43;31.90;100280.53;5036915;28;20033;-74
2021/07/09 06:58:31;;;;;;;6.93;4.70;;;;;;;36.52;31.02;100274.22;5035345;28;20037;-77
2021/07/09 07:00:57;;;;;;;7.03;5.00;;;;;;;36.83;30.01;100266.66;5037519;28;20255;-77
2021/07/09 07:03:22;;;;;;;6.70;4.97;;;;;;;36.75;29.72;100267.44;5038110;28;20058;-77
2021/07/09 07:05:48;;;;;;;5.95;4.50;;;;;;;36.68;29.84;100256.88;5035625;28;20079;-75
2021/07/09 07:08:14;;;;;;;7.13;5.18;;;;;;;36.63;31.02;100268.06;5037320;28;20041;-76
2021/07/09 07:10:40;;;;;;;5.93;5.00;;;;;;;35.66;31.46;100264.47;5037506;28;20029;-75
2021/07/09 07:13:05;;;;;;;5.50;4.90;;;;;;;35.50;31.76;100264.06;5037549;28;20044;-75
2021/07/09 07:15:31;;;;;;;7.50;4.82;;;;;;;35.79;30.93;100249.78;5035381;28;20033;-78
2021/07/09 07:17:56;;;;;;;4.88;4.15;;;;;;;36.13;28.70;100256.56;5038031;28;20037;-76
2021/07/09 07:20:21;;;;;;;4.53;3.92;;;;;;;36.54;29.02;100250.69;5035845;28;20314;-77
2021/07/09 07:22:47;;;;;;;4.40;4.00;;;;;;;35.88;28.84;100252.59;5037199;28;20032;-79
2021/07/09 07:25:13;;;;;;;4.90;4.43;;;;;;;35.63;29.91;100253.25;5037640;28;20030;-78
2021/07/09 07:27:38;;;;;;;5.93;4.22;;;;;;;34.57;31.23;100250.00;5036142;28;20063;-77
2021/07/09 07:30:05;;;;;;;4.90;3.85;;;;;;;34.62;30.39;100246.31;5034549;28;20025;-77
2021/07/09 07:32:30;;;;;;;7.90;4.93;;;;;;;34.79;30.61;100248.41;5050346;28;20042;-76
2021/07/09 07:34:56;;;;;;;6.70;4.30;;;;;;;34.57;31.27;100254.69;5037008;28;20349;-76
2021/07/09 07:37:22;;;;;;;4.57;4.10;;;;;;;34.80;31.34;100245.34;5037972;28;20029;-77
2021/07/09 07:39:48;;;;;;;6.75;4.03;;;;;;;34.23;30.57;100255.91;5041222;28;20039;-75
2021/07/09 07:42:13;;;;;;;6.15;4.00;;;;;;;35.27;29.18;100243.13;5039532;28;20041;-75
2021/07/09 07:44:39;;;;;;;5.30;3.70;;;;;;;35.33;30.06;100246.59;5041247;28;20037;-75
2021/07/09 07:47:05;;;;;;;5.57;4.00;;;;;;;34.49;29.94;100250.72;5041326;28;20100;-75
2021/07/09 07:49:31;;;;;;;4.93;4.05;;;;;;;34.15;31.31;100242.06;5041029;28;20322;-77
2021/07/09 07:51:56;;;;;;;5.35;3.63;;;;;;;34.70;29.91;100244.75;5039876;28;20035;-77
2021/07/09 07:54:23;;;;;;;5.97;4.30;;;;;;;34.98;29.74;100242.75;5040138;28;20065;-78
2021/07/09 07:56:48;;;;;;;6.78;4.40;;;;;;;34.99;29.77;100227.88;5040227;28;20032;-77
2021/07/09 07:59:14;;;;;;;5.30;3.72;;;;;;;35.79;29.08;100232.44;5040993;28;20327;-78
2021/07/09 08:01:40;;;;;;;4.43;3.78;;;;;;;35.86;28.82;100243.84;5041067;28;20079;-77
2021/07/09 08:04:05;;;;;;;5.47;4.07;;;;;;;35.26;29.54;100238.75;5039815;28;20037;-77
2021/07/09 08:06:32;;;;;;;4.63;3.63;;;;;;;35.02;29.21;100244.56;5041185;28;20319;-77
2021/07/09 08:08:58;;;;;;;4.68;3.30;;;;;;;35.47;28.43;100231.63;5041345;28;20052;-77
2021/07/09 08:11:23;;;;;;;5.28;3.90;;;;;;;35.70;28.48;100232.38;5041037;28;20351;-76
2021/07/09 08:13:49;;;;;;;6.25;3.63;;;;;;;36.15;28.24;100237.75;5041133;28;20060;-75
2021/07/09 08:16:15;;;;;;;8.95;4.07;;;;;;;35.77;28.12;100231.94;5041026;28;20045;-76
2021/07/09 08:18:40;;;;;;;4.05;3.65;;;;;;;35.95;28.80;100222.63;5041051;28;20029;-75
2021/07/09 08:21:06;;;;;;;5.95;3.53;;;;;;;36.04;28.16;100228.16;5039665;28;20046;-75
2021/07/09 08:23:31;;;;;;;4.97;3.45;;;;;;;36.63;26.29;100229.44;5040948;28;20041;-77
2021/07/09 08:25:57;;;;;;;4.85;1.88;;;;;;;35.76;26.18;100222.84;5034861;28;20040;-77
2021/07/09 08:28:25;;;;;;;2.42;1.80;;;;;;;34.51;27.05;100215.47;5035988;28;20045;-78
2021/07/09 08:30:50;;;;;;;2.40;2.00;;;;;;;34.43;27.77;100218.16;5033061;28;20049;-77
2021/07/09 08:33:16;;;;;;;4.88;1.80;;;;;;;34.71;27.35;100214.19;5035975;28;20035;-77
2021/07/09 08:35:41;;;;;;;4.43;1.95;;;;;;;35.30;26.16;100216.91;5037831;28;20142;-77
2021/07/09 08:38:08;;;;;;;1.50;1.40;;;;;;;35.12;23.81;100214.03;5039352;28;20026;-77
2021/07/09 08:40:33;;;;;;;1.98;1.60;;;;;;;34.05;25.90;100220.28;5039895;28;20025;-76
2021/07/09 08:42:59;;;;;;;1.98;1.52;;;;;;;33.75;24.75;100224.44;5038248;28;20211;-76
2021/07/09 08:45:25;;;;;;;2.95;1.45;;;;;;;34.34;23.37;100211.75;5040409;28;20311;-76
2021/07/09 08:47:53;;;;;;;3.00;1.50;;;;;;;34.87;24.57;100204.47;5036041;28;20129;-74
2021/07/09 08:50:18;;;;;;;1.73;1.58;;;;;;;35.24;23.72;100204.41;5038938;28;20207;-74
2021/07/09 08:52:44;;;;;;;3.35;1.35;;;;;;;36.06;22.23;100198.34;5038433;28;20032;-75
2021/07/09 08:55:12;;;;;;;2.92;1.48;;;;;;;36.61;20.92;100201.38;5039589;28;20266;-75
2021/07/09 08:57:40;;;;;;;3.55;1.58;;;;;;;37.14;20.50;100193.88;5040202;28;20037;-76
2021/07/09 09:00:26;;;;;;;2.47;1.58;;;;;;;37.63;19.85;100198.00;5038985;28;20226;-76
2021/07/09 09:02:54;;;;;;;1.80;1.60;;;;;;;37.69;21.20;100191.16;5054391;28;20140;-76
2021/07/09 09:05:20;;;;;;;2.65;2.08;;;;;;;36.61;22.61;100186.78;5039752;28;20049;-76
2021/07/09 09:08:00;;;;;;;1.83;1.50;;;;;;;37.25;22.13;100198.75;5037994;28;20033;-76
2021/07/09 09:10:35;;;;;;;5.90;2.80;;;;;;;35.98;27.04;100191.66;5039147;28;20042;-76
2021/07/09 09:13:10;;;;;;;2.58;2.38;;;;;;;34.66;27.55;100197.00;5039419;28;20037;-76
2021/07/09 09:15:37;;;;;;;3.55;2.92;;;;;;;34.95;27.84;100197.41;5037394;28;20049;-76
2021/07/09 09:18:20;;;;;;;3.80;2.70;;;;;;;35.49;26.94;100185.31;5037213;28;20028;-77
2021/07/09 09:20:55;;;;;;;3.75;2.33;;;;;;;35.18;25.93;100179.75;5044470;28;20059;-78
2021/07/09 09:23:20;;;;;;;4.13;2.42;;;;;;;35.51;26.19;100183.06;5043775;28;20040;-75
2021/07/09 09:25:46;;;;;;;2.97;2.40;;;;;;;35.32;26.84;100190.72;5041990;28;20223;-74
2021/07/09 09:28:12;;;;;;;3.20;2.63;;;;;;;34.93;27.43;100190.59;5042476;28;20067;-74
2021/07/09 09:30:40;;;;;;;4.43;2.53;;;;;;;34.13;26.70;100190.16;5043789;28;20041;-74
2021/07/09 09:33:09;;;;;;;3.88;2.05;;;;;;;33.50;27.44;100201.84;5042011;28;20230;-76
2021/07/09 09:35:40;;;;;;;5.95;2.50;;;;;;;33.23;30.69;100193.50;5043922;28;20041;-76
2021/07/09 09:38:10;;;;;;;3.45;2.40;;;;;;;32.94;28.57;100194.53;5043790;28;20033;-77
2021/07/09 09:40:37;;;;;;;4.97;2.20;;;;;;;32.66;31.76;100190.84;5042942;28;20045;-77
2021/07/09 09:43:20;;;;;;;3.20;2.50;;;;;;;32.67;30.49;100197.13;5043179;28;20339;-76
2021/07/09 09:45:58;;;;;;;3.65;2.40;;;;;;;32.62;30.25;100187.06;5042253;28;20029;-76
2021/07/09 09:48:37;;;;;;;5.43;2.90;;;;;;;32.56;31.17;100190.19;5040916;28;20192;-76
2021/07/09 09:51:22;;;;;;;4.63;3.08;;;;;;;32.40;30.38;100181.34;5042216;28;20038;-76
2021/07/09 09:53:52;;;;;;;5.22;2.50;;;;;;;32.33;30.24;100181.72;5043267;28;20025;-76
2021/07/09 09:56:30;;;;;;;4.22;3.10;;;;;;;32.04;30.39;100179.03;5041760;28;20076;-75
2021/07/09 09:59:16;;;;;;;6.40;2.70;;;;;;;32.11;30.95;100178.69;5043538;28;20038;-74
2021/07/09 10:01:55;;;;;;;7.85;3.13;;;;;;;31.67;34.05;100187.13;5043123;28;20065;-74
2021/07/09 10:04:23;;;;;;;4.60;2.60;;;;;;;31.75;31.63;100167.38;5042364;28;20025;-74
2021/07/09 10:06:49;;;;;;;5.50;2.58;;;;;;;32.27;31.85;100179.34;5043064;28;20285;-74
2021/07/09 10:09:16;;;;;;;4.88;2.90;;;;;;;32.11;32.13;100178.69;5042758;28;20033;-76
2021/07/09 10:11:42;;;;;;;3.70;2.85;;;;;;;32.32;31.62;100168.31;5042407;28;20037;-75
2021/07/09 10:14:13;;;;;;;3.13;2.72;;;;;;;32.33;32.04;100159.00;5041465;28;20091;-75
2021/07/09 10:16:41;;;;;;;3.33;2.83;;;;;;;32.25;32.65;100165.94;5041654;28;20044;-75
2021/07/09 10:19:09;;;;;;;4.47;2.97;;;;;;;31.74;33.41;100168.47;5042103;28;20037;-75
2021/07/09 10:21:38;;;;;;;3.22;2.70;;;;;;;31.45;33.66;100165.75;5041672;28;20017;-76
2021/07/09 10:24:04;;;;;;;6.13;3.13;;;;;;;31.48;32.73;100143.28;5043065;28;20084;-75
2021/07/09 10:26:30;;;;;;;3.00;2.63;;;;;;;31.59;35.36;100143.97;5042028;28;20101;-75
2021/07/09 10:29:09;;;;;;;4.30;2.80;;;;;;;31.97;33.53;100137.50;5041392;28;20030;-75
2021/07/09 10:31:39;;;;;;;4.80;3.20;;;;;;;31.73;35.76;100134.81;5040890;28;20148;-76
2021/07/09 10:34:34;;;;;;;4.78;3.40;;;;;;;31.89;33.71;100129.94;5041023;28;20327;-76
2021/07/09 10:37:20;;;;;;;6.78;3.42;;;;;;;31.60;33.81;100135.47;5042359;28;20033;-74
2021/07/09 10:39:51;;;;;;;4.90;3.53;;;;;;;31.42;35.23;100128.84;5042447;28;20042;-74
2021/07/09 10:42:41;;;;;;;7.10;3.30;;;;;;;31.57;34.39;100136.06;5040659;28;20250;-74
2021/07/09 10:45:34;;;;;;;6.65;2.95;;;;;;;31.63;33.76;100123.94;5041136;28;20112;-74
2021/07/09 10:48:03;;;;;;;3.60;2.90;;;;;;;31.91;33.16;100124.19;5036262;28;20052;-75
2021/07/09 10:50:48;;;;;;;5.03;3.50;;;;;;;31.69;32.83;100121.97;5042274;28;20763;-76
2021/07/09 10:53:13;;;;;;;7.28;3.40;;;;;;;31.71;33.05;100122.50;5042355;28;20041;-75
2021/07/09 10:55:49;;;;;;;8.07;3.92;;;;;;;31.53;34.22;100113.13;5040914;28;20231;-76
2021/07/09 10:58:19;;;;;;;5.45;3.40;;;;;;;31.60;37.06;100112.75;5041726;28;20046;-76
2021/07/09 11:00:47;;;;;;;6.18;3.70;;;;;;;31.57;34.96;100108.69;5041921;28;20072;-76
2021/07/09 11:03:43;;;;;;;7.32;3.58;;;;;;;31.73;34.03;100101.13;5040389;28;20249;-76
2021/07/09 11:06:23;;;;;;;6.45;3.38;;;;;;;31.60;33.34;100107.28;5040186;28;20258;-75
2021/07/09 11:09:06;;;;;;;4.13;3.00;;;;;;;31.58;33.47;100096.63;5042229;28;20370;-76
2021/07/09 11:11:36;;;;;;;6.57;3.63;;;;;;;32.01;33.93;100100.19;5041418;28;20334;-76
2021/07/09 11:14:13;;;;;;;6.32;3.20;;;;;;;32.23;33.82;100096.88;5042169;28;20727;-74
2021/07/09 11:16:45;;;;;;;3.60;2.97;;;;;;;32.13;32.79;100091.53;5040312;28;20041;-75
2021/07/09 11:19:28;;;;;;;6.65;3.08;;;;;;;32.47;31.94;100107.78;5033055;28;20126;-75
2021/07/09 11:21:56;;;;;;;4.05;3.15;;;;;;;31.98;33.43;100102.72;5031790;28;20489;-74